メキシコシティ の空港の天気 - METARとTAF

メキシコ・シティ国際空港 ( MMMX / MEX ) - メキシコ メキシコシティ
飛行場実況気象(Metar)
観測時間01/25 13:12 CST (01/25 19:12 UTC)
風向・風速静穏 0m/s
視程10km以上
天気現象
なし
気温24℃
湿度19%
気圧1022hPa
METARMMMX 251912Z 00000KT 8SM SKC 24/M01 A3019 NOSIG RMK HZY
過去の天気等 Google飛行場航空写真 Wunderground天気予報

過去48時間のMETAR

飛行場予報(TAF)
発表時間: 1/25 11:27 CST (1/25 17:27 UTC)
予報対象時間: 25日12時 CST ~ 26日18時 CST
風向・風速東南東 3m/s
視程10km以上
なし
25日20時 CST から
風向・風速南西 3m/s
視程10km以上
全天の4割程度の雲 雲底高度 2440m
26日1時 CST ~ 26日2時 CST に徐々に
風向・風速静穏
26日6時 CST から
風向・風速静穏
視程10km以上
天気現象煙霧
全天の4割程度の雲 雲底高度 6710m
26日11時 CST ~ 26日12時 CST に徐々に
風向・風速南東 3m/s
26日15時 CST から
風向・風速南 6m/s
視程10km以上
全天の4割程度の雲 雲底高度 910m
TAF MMMX 251727Z 2518/2624 12006KT P6SM SKC TX25/2522Z TN09/2613Z 2520/2521 16015KT SCT030
FM260200 23006KT P6SM SCT080
BECMG 2607/2608 00000KT
FM261200 00000KT 6SM HZ SCT220
BECMG 2617/2618 14005KT
FM262100 17012KT P6SM SCT030